Terminal Aerodrome Forecast
Issued by NWS

Home | Current Version | Previous Version | Text Only | Print | Product List | Glossary On
Versions: 1 2 3 4 5 6 7 8 9 10 11 12 13 14 15 16 17 18 19 20 21 22
519
FTAK31 PAJN 031140
TAFAYA
TAF
PAYA 031140Z 0312/0412 VRB05KT P6SM -SHRA SCT025 OVC040
      TEMPO 0312/0315 4SM -SHRA BR BKN025 OVC035
     FM031500 08003KT P6SM VCSH FEW005 BKN050
     FM032100 14006KT P6SM SCT030 BKN050
     FM040500 VRB02KT P6SM -SHRA BKN035 OVC045
      AMD LTD TO CLD VIS AND WIND 0401/0409=

USA.gov is the U.S. government's official web portal to all federal, state and local government web resources and services.